Time;durP1;ratioP1;P1;durP2;ratioP2;P2;SDS_P1;SDS_P2;PMS_P1;PMS_P2;Temp;Humidity;BMP_temperature;BMP_pressure;BME280_temperature;BME280_humidity;BME280_pressure;Samples;Min_cycle;Max_cycle;Signal;HPM_P1;HPM_P2
2021/11/06 00:02:22;;;;;;;51.93;42.93;;;4.70;99.90;;;;;;5071003;28;20482;-72
2021/11/06 00:04:48;;;;;;;46.40;41.23;;;4.70;99.90;;;;;;5071043;28;20451;-73
2021/11/06 00:07:15;;;;;;;45.37;40.47;;;4.80;99.90;;;;;;5070991;28;20786;-72
2021/11/06 00:09:44;;;;;;;52.23;41.53;;;4.70;99.90;;;;;;5070133;28;20541;-73
2021/11/06 00:12:11;;;;;;;48.27;41.80;;;4.60;99.90;;;;;;5070635;28;20828;-72
2021/11/06 00:14:37;;;;;;;45.03;40.40;;;4.60;99.90;;;;;;5070622;28;20493;-74
2021/11/06 00:17:04;;;;;;;48.10;40.47;;;4.60;99.90;;;;;;5070881;28;20447;-74
2021/11/06 00:19:31;;;;;;;44.03;39.17;;;4.60;99.90;;;;;;5070301;28;20500;-75
2021/11/06 00:21:58;;;;;;;47.50;39.53;;;4.60;99.90;;;;;;5070495;28;20488;-75
2021/11/06 00:24:24;;;;;;;51.13;40.70;;;4.50;99.90;;;;;;5070410;28;20493;-74
2021/11/06 00:26:52;;;;;;;61.00;44.37;;;4.50;99.90;;;;;;5070910;28;20449;-74
2021/11/06 00:29:20;;;;;;;48.30;41.37;;;4.50;99.90;;;;;;5070533;28;21014;-72
2021/11/06 00:31:48;;;;;;;51.17;40.33;;;4.60;99.90;;;;;;5070863;28;20474;-73
2021/11/06 00:34:15;;;;;;;48.50;41.37;;;4.70;99.90;;;;;;5070488;28;20454;-72
2021/11/06 00:36:41;;;;;;;47.20;39.20;;;4.80;99.90;;;;;;5070352;28;20442;-73
2021/11/06 00:39:08;;;;;;;47.50;40.00;;;4.90;99.90;;;;;;5070076;28;20683;-72
2021/11/06 00:41:35;;;;;;;47.97;40.37;;;4.90;99.90;;;;;;5070542;28;20482;-73
2021/11/06 00:44:03;;;;;;;48.07;40.07;;;5.00;99.90;;;;;;5070499;28;20928;-73
2021/11/06 00:46:30;;;;;;;53.03;41.70;;;5.00;99.90;;;;;;5070209;28;20447;-73
2021/11/06 00:48:57;;;;;;;62.47;45.50;;;5.20;99.90;;;;;;5070075;28;20685;-73
2021/11/06 00:51:23;;;;;;;55.33;40.43;;;5.30;99.90;;;;;;5070182;28;20618;-72
2021/11/06 00:53:50;;;;;;;58.17;45.67;;;5.40;99.90;;;;;;5070322;28;20454;-72
2021/11/06 00:56:17;;;;;;;62.47;46.77;;;5.50;99.90;;;;;;5070273;28;20443;-72
2021/11/06 00:58:43;;;;;;;59.20;46.10;;;5.60;99.90;;;;;;5070035;28;20457;-72
2021/11/06 01:01:12;;;;;;;83.77;50.77;;;5.70;99.90;;;;;;5070120;28;20835;-72
2021/11/06 01:03:38;;;;;;;78.90;49.27;;;5.80;99.90;;;;;;5070260;28;20482;-72
2021/11/06 01:06:05;;;;;;;84.27;53.20;;;5.90;99.90;;;;;;5070228;28;20459;-72
2021/11/06 01:08:32;;;;;;;75.67;51.67;;;6.00;99.90;;;;;;5068328;28;20453;-72
2021/11/06 01:10:58;;;;;;;81.40;50.57;;;5.90;99.90;;;;;;5069941;28;20685;-72
2021/11/06 01:13:25;;;;;;;76.20;49.60;;;5.90;99.90;;;;;;5070015;28;20450;-72
2021/11/06 01:15:52;;;;;;;72.43;49.67;;;5.90;99.90;;;;;;5070107;28;20810;-72
2021/11/06 01:18:20;;;;;;;68.83;49.43;;;5.90;99.90;;;;;;5070222;28;20449;-71
2021/11/06 01:20:46;;;;;;;78.60;51.53;;;5.90;99.90;;;;;;5070428;28;20456;-71
2021/11/06 01:23:13;;;;;;;74.57;51.77;;;5.90;99.90;;;;;;5073926;28;20483;-71
2021/11/06 01:25:40;;;;;;;84.77;51.83;;;5.90;99.90;;;;;;5073703;28;20451;-71
2021/11/06 01:28:07;;;;;;;95.23;56.53;;;5.90;99.90;;;;;;5074061;28;20500;-72
2021/11/06 01:30:34;;;;;;;86.60;52.17;;;5.90;99.90;;;;;;5073965;28;21047;-71
2021/11/06 01:33:00;;;;;;;78.87;52.00;;;5.90;99.90;;;;;;5074081;28;20441;-71
2021/11/06 01:35:28;;;;;;;83.23;53.97;;;6.00;99.90;;;;;;5073803;28;20458;-71
2021/11/06 01:37:58;;;;;;;113.27;55.30;;;5.90;99.90;;;;;;5073452;28;20462;-71
2021/11/06 01:40:25;;;;;;;121.07;57.20;;;5.90;99.90;;;;;;5073833;28;20813;-71
2021/11/06 01:42:52;;;;;;;123.33;54.80;;;5.90;99.90;;;;;;5073629;28;21000;-71
2021/11/06 01:45:21;;;;;;;94.50;53.10;;;6.00;99.90;;;;;;5073670;28;20454;-71
2021/11/06 01:47:48;;;;;;;99.00;52.07;;;5.90;99.90;;;;;;5073591;28;20855;-72
2021/11/06 01:50:16;;;;;;;106.60;53.97;;;6.00;99.90;;;;;;5073602;28;20502;-72
2021/11/06 01:52:45;;;;;;;82.67;52.57;;;6.00;99.90;;;;;;5073423;28;20453;-72
2021/11/06 01:55:11;;;;;;;160.27;59.57;;;5.90;99.90;;;;;;5073357;28;21290;-72
2021/11/06 01:57:38;;;;;;;83.03;51.97;;;5.90;99.90;;;;;;5073334;28;20965;-72
2021/11/06 02:00:07;;;;;;;125.57;56.40;;;5.90;99.90;;;;;;5073087;28;20574;-72
2021/11/06 02:02:35;;;;;;;101.97;53.83;;;5.80;99.90;;;;;;5073287;28;20493;-72
2021/11/06 02:05:02;;;;;;;98.60;53.17;;;5.80;99.90;;;;;;5073516;28;20450;-72
2021/11/06 02:07:28;;;;;;;93.27;54.80;;;5.90;99.90;;;;;;5073228;28;20511;-72
2021/11/06 02:09:56;;;;;;;100.23;52.27;;;5.80;99.90;;;;;;5072956;28;20455;-73
2021/11/06 02:12:23;;;;;;;79.80;49.27;;;5.80;99.90;;;;;;5073278;28;20451;-73
2021/11/06 02:14:50;;;;;;;94.53;47.70;;;5.80;99.90;;;;;;5073177;28;20452;-72
2021/11/06 02:17:16;;;;;;;104.60;48.20;;;5.70;99.90;;;;;;5073042;28;20452;-71
2021/11/06 02:19:43;;;;;;;139.53;54.60;;;5.60;99.90;;;;;;5072952;28;20502;-70
2021/11/06 02:22:11;;;;;;;111.27;53.07;;;5.50;99.90;;;;;;5072958;28;20483;-70
2021/11/06 02:24:38;;;;;;;115.70;52.00;;;5.50;99.90;;;;;;5072559;28;20454;-70
2021/11/06 02:27:05;;;;;;;115.40;51.90;;;5.50;99.90;;;;;;5072952;28;20447;-72
2021/11/06 02:29:33;;;;;;;129.97;53.87;;;5.50;99.90;;;;;;5072713;28;20454;-72
2021/11/06 02:32:00;;;;;;;116.87;57.20;;;5.50;99.90;;;;;;5072291;28;20473;-72
2021/11/06 02:34:27;;;;;;;94.27;52.50;;;5.50;99.90;;;;;;5072678;28;21230;-72
2021/11/06 02:36:55;;;;;;;96.13;49.80;;;5.40;99.90;;;;;;5072528;28;20459;-72
2021/11/06 02:39:25;;;;;;;79.80;51.70;;;5.40;99.90;;;;;;5072522;28;20500;-72
2021/11/06 02:41:58;;;;;;;88.60;48.87;;;5.40;99.90;;;;;;5072648;28;20452;-72
2021/11/06 02:44:25;;;;;;;71.33;46.37;;;5.40;99.90;;;;;;5072589;28;20855;-72
2021/11/06 02:46:51;;;;;;;78.10;48.83;;;5.30;99.90;;;;;;5072748;28;20945;-72
2021/11/06 02:49:18;;;;;;;67.67;47.20;;;5.30;99.90;;;;;;5072679;28;20455;-72
2021/11/06 02:51:45;;;;;;;58.30;46.43;;;5.40;99.90;;;;;;5072381;28;20454;-72
2021/11/06 02:54:12;;;;;;;68.73;46.50;;;5.40;99.90;;;;;;5072285;28;20517;-73
2021/11/06 02:56:40;;;;;;;82.73;48.77;;;5.40;99.90;;;;;;5072795;28;20451;-72
2021/11/06 02:59:07;;;;;;;59.03;43.57;;;5.40;99.90;;;;;;5071992;28;20970;-72
2021/11/06 03:01:34;;;;;;;69.67;47.17;;;5.30;99.90;;;;;;5072209;28;20957;-71
2021/11/06 03:04:01;;;;;;;75.37;51.13;;;5.30;99.90;;;;;;5071824;28;20478;-71
2021/11/06 03:06:27;;;;;;;68.80;48.67;;;5.30;99.90;;;;;;5072053;28;20454;-72
2021/11/06 03:08:54;;;;;;;64.10;48.23;;;5.30;99.90;;;;;;5072024;28;20566;-72
2021/11/06 03:11:21;;;;;;;67.67;47.27;;;5.40;99.90;;;;;;5072163;28;20535;-73
2021/11/06 03:13:50;;;;;;;65.30;45.67;;;5.40;99.90;;;;;;5071863;28;20447;-73
2021/11/06 03:16:16;;;;;;;64.10;47.10;;;5.30;99.90;;;;;;5071965;28;20512;-72
2021/11/06 03:18:43;;;;;;;56.07;46.10;;;5.30;99.90;;;;;;5071777;28;20470;-72
2021/11/06 03:21:10;;;;;;;68.90;46.50;;;5.30;99.90;;;;;;5071876;28;20454;-72
2021/11/06 03:23:37;;;;;;;55.80;43.87;;;5.30;99.90;;;;;;5071644;28;20493;-72
2021/11/06 03:26:03;;;;;;;67.60;44.60;;;5.30;99.90;;;;;;5071893;28;20456;-73
2021/11/06 03:28:30;;;;;;;56.47;46.13;;;5.30;99.90;;;;;;5071613;28;20482;-73
2021/11/06 03:30:58;;;;;;;58.90;45.70;;;5.30;99.90;;;;;;5071670;28;20466;-73
2021/11/06 03:33:25;;;;;;;62.27;43.00;;;5.20;99.90;;;;;;5071491;28;20479;-73
2021/11/06 03:35:51;;;;;;;59.87;45.23;;;5.10;99.90;;;;;;5071552;28;20459;-71
2021/11/06 03:38:18;;;;;;;49.73;44.03;;;5.10;99.90;;;;;;5071631;28;20450;-72
2021/11/06 03:40:45;;;;;;;55.37;44.57;;;5.10;99.90;;;;;;5071397;28;20458;-72
2021/11/06 03:43:11;;;;;;;54.73;45.20;;;5.10;99.90;;;;;;5070486;28;21245;-71
2021/11/06 03:45:39;;;;;;;53.83;44.03;;;5.20;99.90;;;;;;5070904;28;20512;-72
2021/11/06 03:48:07;;;;;;;48.23;43.13;;;5.20;99.90;;;;;;5071446;28;20455;-72
2021/11/06 03:50:34;;;;;;;48.33;42.77;;;5.20;99.90;;;;;;5071474;28;20447;-71
2021/11/06 03:53:01;;;;;;;51.13;43.53;;;5.20;99.90;;;;;;5070810;28;20446;-72
2021/11/06 03:55:28;;;;;;;53.73;44.80;;;5.20;99.90;;;;;;5071238;28;20445;-80
2021/11/06 03:57:55;;;;;;;51.93;43.63;;;5.20;99.90;;;;;;5071020;28;20457;-76
2021/11/06 04:00:22;;;;;;;53.13;42.67;;;5.20;99.90;;;;;;5070726;28;20479;-77
2021/11/06 04:02:50;;;;;;;52.27;43.07;;;5.20;99.90;;;;;;5071312;28;20492;-76
2021/11/06 04:05:18;;;;;;;49.93;42.73;;;5.20;99.90;;;;;;5071231;28;20447;-75
2021/11/06 04:07:45;;;;;;;46.90;41.10;;;5.10;99.90;;;;;;5071147;28;20863;-75
2021/11/06 04:10:12;;;;;;;45.63;39.90;;;5.00;99.90;;;;;;5071093;28;20462;-75
2021/11/06 04:12:40;;;;;;;55.77;43.27;;;5.00;99.90;;;;;;5070941;28;20855;-76
2021/11/06 04:15:09;;;;;;;44.57;39.73;;;4.90;99.90;;;;;;5071126;28;20447;-76
2021/11/06 04:17:36;;;;;;;46.97;41.73;;;4.80;99.90;;;;;;5071083;28;20452;-76
2021/11/06 04:20:04;;;;;;;57.50;41.60;;;4.80;99.90;;;;;;5070819;28;20581;-76
2021/11/06 04:22:32;;;;;;;56.33;44.80;;;4.90;99.90;;;;;;5070678;28;20451;-76
2021/11/06 04:24:58;;;;;;;59.77;41.40;;;4.90;99.90;;;;;;5070744;28;20451;-75
2021/11/06 04:27:25;;;;;;;48.13;40.77;;;4.90;99.90;;;;;;5070876;28;20497;-76
2021/11/06 04:29:52;;;;;;;56.73;41.20;;;5.00;99.90;;;;;;5070853;28;20446;-75
2021/11/06 04:32:18;;;;;;;52.47;39.90;;;5.00;99.90;;;;;;5070828;28;20942;-76
2021/11/06 04:34:45;;;;;;;44.67;38.77;;;5.10;99.90;;;;;;5070589;28;20952;-76
2021/11/06 04:37:12;;;;;;;42.53;38.00;;;5.10;99.90;;;;;;5070532;28;20899;-77
2021/11/06 04:39:40;;;;;;;40.77;36.87;;;5.10;99.90;;;;;;5070592;28;20447;-76
2021/11/06 04:42:07;;;;;;;42.63;38.10;;;5.10;99.90;;;;;;5070748;28;20451;-76
2021/11/06 04:44:34;;;;;;;41.47;37.17;;;5.10;99.90;;;;;;5070575;28;20495;-76
2021/11/06 04:47:01;;;;;;;49.20;39.97;;;5.00;99.90;;;;;;5070514;28;20480;-77
2021/11/06 04:49:27;;;;;;;47.90;38.60;;;4.90;99.90;;;;;;5070269;28;20812;-77
2021/11/06 04:51:54;;;;;;;44.67;38.10;;;4.90;99.90;;;;;;5070351;28;20501;-77
2021/11/06 04:54:21;;;;;;;53.97;37.90;;;4.90;99.90;;;;;;5070591;28;20547;-77
2021/11/06 04:56:50;;;;;;;46.33;39.40;;;4.80;99.90;;;;;;5070353;28;20937;-77
2021/11/06 04:59:17;;;;;;;46.40;38.77;;;4.70;99.90;;;;;;5070141;28;20891;-78
2021/11/06 05:01:44;;;;;;;40.33;36.20;;;4.80;99.90;;;;;;5070225;28;20458;-77
2021/11/06 05:04:10;;;;;;;40.10;36.13;;;4.80;99.90;;;;;;5070520;28;20483;-79
2021/11/06 05:06:37;;;;;;;41.80;37.40;;;4.70;99.90;;;;;;5070766;28;20454;-78
2021/11/06 05:09:04;;;;;;;40.10;36.10;;;4.70;99.90;;;;;;5070328;28;20452;-78
2021/11/06 05:11:30;;;;;;;38.77;34.93;;;4.70;99.90;;;;;;5070168;28;20451;-76
2021/11/06 05:13:59;;;;;;;41.93;35.60;;;4.70;99.90;;;;;;5070158;28;20836;-77
2021/11/06 05:16:26;;;;;;;40.77;36.47;;;4.60;99.90;;;;;;5070211;28;20451;-75
2021/11/06 05:18:54;;;;;;;37.00;33.27;;;4.70;99.90;;;;;;5070101;28;20447;-77
2021/11/06 05:21:21;;;;;;;49.37;37.13;;;4.80;99.90;;;;;;5070370;28;20949;-77
2021/11/06 05:23:47;;;;;;;45.90;35.93;;;4.70;99.90;;;;;;5070169;28;20583;-76
2021/11/06 05:26:14;;;;;;;42.30;35.13;;;4.70;99.90;;;;;;5070076;28;20453;-76
2021/11/06 05:28:42;;;;;;;39.97;35.50;;;4.70;99.90;;;;;;5070060;28;20448;-79
2021/11/06 05:31:10;;;;;;;41.47;34.07;;;4.60;99.90;;;;;;5069787;28;20472;-76
2021/11/06 05:33:37;;;;;;;38.57;34.57;;;4.40;99.90;;;;;;5070302;28;20451;-77
2021/11/06 05:36:04;;;;;;;40.73;36.67;;;4.40;99.90;;;;;;5070701;28;20447;-76
2021/11/06 05:38:30;;;;;;;38.50;33.47;;;4.40;99.90;;;;;;5070121;28;20447;-75
2021/11/06 05:40:57;;;;;;;34.73;31.83;;;4.40;99.90;;;;;;5070019;28;20458;-78
2021/11/06 05:43:24;;;;;;;35.43;31.80;;;4.30;99.90;;;;;;5070272;28;20491;-76
2021/11/06 05:45:51;;;;;;;36.20;32.60;;;4.20;99.90;;;;;;5070194;28;20442;-76
2021/11/06 05:48:19;;;;;;;33.23;30.53;;;4.20;99.90;;;;;;5070152;28;20501;-75
2021/11/06 05:50:46;;;;;;;36.17;32.53;;;4.20;99.90;;;;;;5066428;28;20444;-77
2021/11/06 05:53:12;;;;;;;32.33;29.63;;;4.20;99.90;;;;;;5058307;28;20792;-75
2021/11/06 05:55:39;;;;;;;30.43;27.90;;;4.20;99.90;;;;;;5063961;28;20534;-77
2021/11/06 05:58:06;;;;;;;29.87;27.57;;;4.20;99.90;;;;;;5070084;28;20476;-80
2021/11/06 06:00:33;;;;;;;26.93;24.97;;;4.10;99.90;;;;;;5069707;28;20519;-75
2021/11/06 06:03:00;;;;;;;29.53;26.87;;;4.10;99.90;;;;;;5059067;28;20498;-77
2021/11/06 06:05:28;;;;;;;30.27;27.77;;;4.00;99.90;;;;;;5049722;28;20499;-78
2021/11/06 06:07:55;;;;;;;27.30;25.20;;;3.90;99.90;;;;;;5051737;28;20460;-79
2021/11/06 06:10:21;;;;;;;26.90;24.67;;;3.90;99.90;;;;;;5050850;28;20481;-78
2021/11/06 06:12:52;;;;;;;29.03;26.27;;;3.90;99.90;;;;;;5053238;28;20467;-76
2021/11/06 06:15:20;;;;;;;27.80;25.47;;;3.80;99.90;;;;;;5053039;28;20559;-80
2021/11/06 06:17:47;;;;;;;26.57;24.37;;;3.90;99.90;;;;;;5053043;28;20494;-76
2021/11/06 06:20:13;;;;;;;25.90;23.90;;;3.90;99.90;;;;;;5051279;28;21051;-72
2021/11/06 06:22:42;;;;;;;27.63;25.27;;;4.00;99.90;;;;;;5052042;28;20514;-72
2021/11/06 06:25:10;;;;;;;26.80;24.50;;;4.10;99.90;;;;;;5051423;28;20485;-71
2021/11/06 06:27:37;;;;;;;27.53;25.17;;;4.10;99.90;;;;;;5049733;28;20551;-72
2021/11/06 06:30:05;;;;;;;27.80;25.50;;;4.00;99.90;;;;;;5052262;28;20479;-72
2021/11/06 06:32:31;;;;;;;28.20;25.80;;;4.10;99.90;;;;;;5052883;28;20451;-72
2021/11/06 06:34:58;;;;;;;28.17;25.43;;;4.10;99.90;;;;;;5052930;28;20456;-73
2021/11/06 06:37:25;;;;;;;27.70;24.70;;;4.10;99.90;;;;;;5052708;28;20455;-72
2021/11/06 06:39:53;;;;;;;29.73;27.07;;;4.10;99.90;;;;;;5052979;28;20452;-72
2021/11/06 06:42:20;;;;;;;28.53;25.80;;;4.20;99.90;;;;;;5052932;28;20452;-73
2021/11/06 06:44:47;;;;;;;29.30;26.60;;;4.30;99.90;;;;;;5052599;28;20488;-72
2021/11/06 06:47:13;;;;;;;29.00;25.60;;;4.50;99.90;;;;;;5052559;28;20522;-73
2021/11/06 06:49:40;;;;;;;29.60;26.60;;;4.50;99.90;;;;;;5052296;28;20456;-73
2021/11/06 06:52:07;;;;;;;31.37;25.77;;;4.70;99.90;;;;;;5052654;28;20452;-72
2021/11/06 06:54:34;;;;;;;30.37;27.07;;;4.80;99.90;;;;;;5052814;28;20915;-72
2021/11/06 06:57:02;;;;;;;37.17;27.30;;;4.70;99.90;;;;;;5052336;28;20855;-73
2021/11/06 06:59:32;;;;;;;32.47;27.20;;;4.70;99.90;;;;;;5052277;28;20852;-73
2021/11/06 07:01:59;;;;;;;42.83;30.60;;;4.90;99.90;;;;;;5052226;28;20491;-73
2021/11/06 07:04:26;;;;;;;41.57;30.30;;;4.80;99.90;;;;;;5052128;28;20576;-73
2021/11/06 07:06:53;;;;;;;41.67;30.87;;;4.70;99.90;;;;;;5052305;28;20942;-73
2021/11/06 07:09:20;;;;;;;39.37;30.00;;;4.80;99.90;;;;;;5052417;28;20555;-74
2021/11/06 07:11:47;;;;;;;42.33;32.60;;;4.90;99.90;;;;;;5052118;28;20503;-73
2021/11/06 07:14:16;;;;;;;44.40;30.37;;;4.90;99.90;;;;;;5051869;28;21083;-73
2021/11/06 07:16:43;;;;;;;48.60;33.43;;;4.90;99.90;;;;;;5052010;28;20452;-74
2021/11/06 07:19:10;;;;;;;55.07;30.73;;;4.80;99.90;;;;;;5051973;28;20544;-73
2021/11/06 07:21:37;;;;;;;44.37;30.43;;;4.80;99.90;;;;;;5051903;28;20459;-73
2021/11/06 07:24:04;;;;;;;50.90;29.70;;;4.70;99.90;;;;;;5051891;28;20630;-73
2021/11/06 07:26:32;;;;;;;56.73;29.00;;;4.70;99.90;;;;;;5051636;28;20455;-73
2021/11/06 07:28:59;;;;;;;53.30;33.47;;;4.70;99.90;;;;;;5051532;28;20498;-74
2021/11/06 07:31:27;;;;;;;51.87;31.00;;;4.60;99.90;;;;;;5051601;28;20476;-74
2021/11/06 07:33:55;;;;;;;47.30;32.03;;;4.60;99.90;;;;;;5051621;28;20501;-73
2021/11/06 07:36:22;;;;;;;43.97;33.20;;;4.60;99.90;;;;;;5051950;28;20827;-73
2021/11/06 07:38:49;;;;;;;45.83;32.63;;;4.60;99.90;;;;;;5051677;28;20925;-73
2021/11/06 07:41:15;;;;;;;41.43;30.33;;;4.70;99.90;;;;;;5051512;28;20487;-73
2021/11/06 07:43:43;;;;;;;49.00;32.70;;;4.60;99.90;;;;;;5051381;28;20491;-73
2021/11/06 07:46:10;;;;;;;40.43;30.33;;;4.60;99.90;;;;;;5051320;28;20456;-73
2021/11/06 07:48:38;;;;;;;40.03;31.13;;;4.70;99.90;;;;;;5051448;28;20439;-73
2021/11/06 07:51:05;;;;;;;39.37;30.30;;;4.70;99.90;;;;;;5051513;28;20455;-73
2021/11/06 07:53:31;;;;;;;36.20;28.93;;;4.70;99.90;;;;;;5051310;28;20444;-73
2021/11/06 07:55:59;;;;;;;35.70;28.43;;;4.70;99.90;;;;;;5051154;28;20486;-74
2021/11/06 07:58:25;;;;;;;38.23;29.27;;;4.70;99.90;;;;;;5051084;28;20879;-73
2021/11/06 08:00:52;;;;;;;39.90;30.20;;;4.70;99.90;;;;;;5051024;28;20889;-73
2021/11/06 08:03:19;;;;;;;36.10;27.77;;;4.90;99.90;;;;;;5051406;28;20460;-73
2021/11/06 08:05:47;;;;;;;44.07;29.40;;;4.90;99.90;;;;;;5050882;28;20511;-73
2021/11/06 08:08:14;;;;;;;35.00;28.87;;;4.90;99.90;;;;;;5050836;28;21246;-73
2021/11/06 08:10:40;;;;;;;33.57;28.87;;;4.90;99.90;;;;;;5050771;28;20552;-73
2021/11/06 08:13:07;;;;;;;40.77;30.20;;;5.00;99.90;;;;;;5050787;28;20452;-73
2021/11/06 08:15:34;;;;;;;38.10;29.93;;;5.00;99.90;;;;;;5051106;28;20452;-74
2021/11/06 08:18:01;;;;;;;32.07;26.13;;;5.20;99.90;;;;;;5050795;28;20814;-74
2021/11/06 08:20:27;;;;;;;33.37;26.50;;;5.30;99.90;;;;;;5050691;28;20815;-74
2021/11/06 08:22:56;;;;;;;33.73;26.90;;;5.20;99.90;;;;;;5050784;28;20456;-73
2021/11/06 08:25:23;;;;;;;32.80;26.00;;;5.10;99.90;;;;;;5050596;28;20484;-73
2021/11/06 08:27:52;;;;;;;36.53;28.07;;;5.00;99.90;;;;;;5050714;28;20460;-74
2021/11/06 08:30:21;;;;;;;32.13;28.40;;;5.10;99.90;;;;;;5050411;28;20522;-73
2021/11/06 08:32:49;;;;;;;34.20;27.60;;;5.10;99.90;;;;;;5050629;28;20950;-73
2021/11/06 08:35:17;;;;;;;27.70;24.77;;;5.20;99.90;;;;;;5050520;28;20953;-73
2021/11/06 08:37:44;;;;;;;29.00;26.17;;;5.20;99.90;;;;;;5050555;28;20506;-73
2021/11/06 08:40:13;;;;;;;29.50;25.57;;;5.30;99.90;;;;;;5050449;28;20454;-73
2021/11/06 08:42:40;;;;;;;27.97;25.20;;;5.50;99.90;;;;;;5050289;28;20448;-72
2021/11/06 08:45:10;;;;;;;28.13;25.27;;;5.60;99.90;;;;;;5050380;28;20489;-74
2021/11/06 08:47:37;;;;;;;27.57;24.70;;;5.60;99.90;;;;;;5050492;28;20533;-72
2021/11/06 08:50:05;;;;;;;24.70;22.33;;;5.50;99.90;;;;;;5050435;28;20449;-73
2021/11/06 08:52:31;;;;;;;26.67;23.37;;;5.50;99.90;;;;;;5050360;28;20452;-72
2021/11/06 08:54:58;;;;;;;26.97;24.10;;;5.70;99.90;;;;;;5050163;28;20459;-73
2021/11/06 08:57:26;;;;;;;25.53;23.33;;;5.60;99.90;;;;;;5050101;28;20467;-72
2021/11/06 08:59:59;;;;;;;26.53;23.30;;;5.70;99.90;;;;;;5050041;28;20896;-73
2021/11/06 09:02:26;;;;;;;30.73;24.33;;;5.80;99.90;;;;;;5050152;28;20878;-73
2021/11/06 09:04:54;;;;;;;26.80;23.90;;;5.90;99.90;;;;;;5050194;28;20494;-73
2021/11/06 09:07:21;;;;;;;27.87;24.00;;;5.90;99.90;;;;;;5050326;28;20502;-73
2021/11/06 09:09:48;;;;;;;28.90;25.20;;;5.90;99.90;;;;;;5050237;28;20466;-73
2021/11/06 09:12:15;;;;;;;24.57;22.07;;;5.90;99.90;;;;;;5050228;28;20456;-74
2021/11/06 09:14:43;;;;;;;26.60;23.77;;;5.90;99.90;;;;;;5050093;28;20509;-74
2021/11/06 09:17:09;;;;;;;28.20;25.43;;;5.90;99.90;;;;;;5049983;28;20453;-74
2021/11/06 09:19:36;;;;;;;28.87;24.97;;;6.00;99.90;;;;;;5050314;28;20589;-74
2021/11/06 09:22:03;;;;;;;27.67;24.10;;;6.00;99.90;;;;;;5050136;28;20953;-75
2021/11/06 09:24:30;;;;;;;27.83;25.13;;;6.10;99.90;;;;;;5049973;28;20479;-74
2021/11/06 09:26:57;;;;;;;31.00;25.63;;;6.10;99.90;;;;;;5049937;28;20617;-74
2021/11/06 09:29:23;;;;;;;28.27;25.27;;;6.20;99.90;;;;;;5050030;28;20470;-73
2021/11/06 09:31:51;;;;;;;31.30;27.70;;;6.20;99.90;;;;;;5049871;28;20468;-74
2021/11/06 09:34:18;;;;;;;29.20;25.97;;;6.40;99.90;;;;;;5049894;28;20458;-74
2021/11/06 09:36:45;;;;;;;29.60;25.13;;;6.40;99.90;;;;;;5049760;28;20455;-75
2021/11/06 09:39:13;;;;;;;28.90;25.63;;;6.40;99.90;;;;;;5049762;28;20739;-74
2021/11/06 09:41:40;;;;;;;31.07;27.50;;;6.40;99.90;;;;;;5049965;28;21037;-74
2021/11/06 09:44:07;;;;;;;33.70;27.10;;;6.40;99.90;;;;;;5053753;28;20478;-74
2021/11/06 09:46:35;;;;;;;28.90;26.07;;;6.30;99.90;;;;;;5053821;28;20455;-74
2021/11/06 09:49:03;;;;;;;30.27;27.03;;;6.50;99.90;;;;;;5053769;28;20462;-74
2021/11/06 09:51:30;;;;;;;31.00;27.93;;;6.50;99.90;;;;;;5053567;28;20513;-74
2021/11/06 09:53:57;;;;;;;29.70;26.30;;;6.50;99.90;;;;;;5053595;28;20451;-75
2021/11/06 09:56:26;;;;;;;30.40;27.33;;;6.40;99.90;;;;;;5053416;28;20807;-74
2021/11/06 09:58:59;;;;;;;30.87;27.13;;;6.40;99.90;;;;;;5053213;28;20453;-75
2021/11/06 10:01:26;;;;;;;32.10;28.80;;;6.60;99.90;;;;;;5053473;28;20483;-75
2021/11/06 10:03:53;;;;;;;31.93;28.60;;;6.70;99.90;;;;;;5053545;28;20450;-75
2021/11/06 10:06:23;;;;;;;33.63;29.97;;;6.60;99.90;;;;;;5053544;28;20536;-75
2021/11/06 10:08:51;;;;;;;29.93;27.13;;;6.80;99.90;;;;;;5053460;28;20455;-75
2021/11/06 10:11:19;;;;;;;29.43;26.40;;;6.90;99.90;;;;;;5053314;28;20462;-74
2021/11/06 10:13:50;;;;;;;28.50;25.47;;;6.90;99.90;;;;;;5053119;28;20454;-75
2021/11/06 10:16:18;;;;;;;31.00;28.10;;;6.90;99.90;;;;;;5053231;28;20497;-75
2021/11/06 10:18:45;;;;;;;30.40;27.37;;;6.70;99.90;;;;;;5053055;28;20933;-76
2021/11/06 10:21:12;;;;;;;30.90;27.80;;;6.60;99.90;;;;;;5053214;28;20560;-76
2021/11/06 10:23:42;;;;;;;31.77;28.67;;;6.80;99.90;;;;;;5053140;28;20458;-76
2021/11/06 10:26:13;;;;;;;31.03;27.83;;;7.00;99.90;;;;;;5053014;28;20502;-76
2021/11/06 10:28:40;;;;;;;32.00;29.00;;;7.10;99.90;;;;;;5052808;28;20451;-76
2021/11/06 10:31:07;;;;;;;31.40;28.10;;;7.00;99.90;;;;;;5052925;28;20481;-73
2021/11/06 10:33:46;;;;;;;30.53;27.67;;;7.00;99.90;;;;;;5053026;28;20446;-75
2021/11/06 10:36:19;;;;;;;30.83;27.63;;;7.20;99.90;;;;;;5052899;28;20436;-75
2021/11/06 10:39:10;;;;;;;32.23;29.23;;;7.20;99.90;;;;;;5052582;28;20939;-74
2021/11/06 10:41:39;;;;;;;31.20;28.10;;;7.20;99.90;;;;;;5053008;28;20519;-75
2021/11/06 10:44:08;;;;;;;32.00;28.70;;;7.10;99.90;;;;;;5052986;28;20447;-74
2021/11/06 10:46:35;;;;;;;32.83;29.60;;;7.20;99.90;;;;;;5052668;28;20487;-74
2021/11/06 10:49:04;;;;;;;30.20;27.30;;;7.30;99.90;;;;;;5052809;28;20452;-74
2021/11/06 10:51:31;;;;;;;32.20;28.87;;;7.30;99.90;;;;;;5052603;28;20489;-74
2021/11/06 10:54:01;;;;;;;32.93;29.37;;;7.20;99.90;;;;;;5052229;28;20514;-75
2021/11/06 10:56:31;;;;;;;33.57;30.07;;;7.20;99.90;;;;;;5052406;28;20506;-75
2021/11/06 10:59:00;;;;;;;33.40;29.10;;;7.40;99.90;;;;;;5052092;28;20501;-75
2021/11/06 11:01:29;;;;;;;31.87;28.83;;;7.50;99.90;;;;;;5052400;28;20815;-74
2021/11/06 11:04:03;;;;;;;32.93;29.93;;;7.70;99.90;;;;;;5052311;28;20448;-74
2021/11/06 11:06:37;;;;;;;31.90;28.50;;;7.60;99.90;;;;;;5052026;28;20553;-74
2021/11/06 11:09:09;;;;;;;31.50;28.70;;;7.80;99.90;;;;;;5052444;28;20451;-74
2021/11/06 11:11:36;;;;;;;34.90;31.40;;;7.70;99.90;;;;;;5052364;28;20471;-75
2021/11/06 11:14:05;;;;;;;34.23;30.60;;;7.70;99.90;;;;;;5052019;28;20543;-74
2021/11/06 11:16:36;;;;;;;34.00;30.43;;;8.00;99.90;;;;;;5052175;28;20444;-76
2021/11/06 11:19:05;;;;;;;34.57;31.00;;;8.00;99.90;;;;;;5052089;28;20938;-75
2021/11/06 11:21:37;;;;;;;32.83;29.50;;;8.10;99.90;;;;;;5050188;28;20476;-76
2021/11/06 11:24:09;;;;;;;35.17;31.40;;;8.00;99.90;;;;;;5052092;28;20443;-75
2021/11/06 11:26:37;;;;;;;36.07;32.30;;;7.70;99.90;;;;;;5051925;28;20495;-75
2021/11/06 11:29:06;;;;;;;33.70;30.43;;;7.70;99.90;;;;;;5052056;28;20452;-75
2021/11/06 11:31:33;;;;;;;34.23;30.83;;;8.00;99.90;;;;;;5051640;28;20467;-74
2021/11/06 11:34:00;;;;;;;35.87;32.07;;;8.00;99.90;;;;;;5051713;28;20452;-75
2021/11/06 11:36:29;;;;;;;35.00;31.40;;;7.80;99.90;;;;;;5051731;28;20660;-75
2021/11/06 11:38:57;;;;;;;36.10;32.40;;;7.70;99.90;;;;;;5051613;28;20456;-75
2021/11/06 11:41:50;;;;;;;34.70;31.13;;;8.00;99.90;;;;;;5051586;28;20459;-75
2021/11/06 11:44:51;;;;;;;38.40;34.30;;;8.10;99.90;;;;;;5051418;28;20456;-74
2021/11/06 11:47:22;;;;;;;35.77;32.23;;;8.20;99.90;;;;;;5051382;28;20440;-74
2021/11/06 11:49:54;;;;;;;35.70;31.97;;;8.30;99.90;;;;;;5051663;28;20440;-74
2021/11/06 11:52:32;;;;;;;34.73;31.23;;;8.20;99.90;;;;;;5051659;28;20448;-75
2021/11/06 11:55:03;;;;;;;33.70;30.10;;;8.20;99.90;;;;;;5051303;28;20456;-75
2021/11/06 11:57:32;;;;;;;35.23;31.27;;;8.40;99.90;;;;;;5051149;28;20456;-75
2021/11/06 11:59:59;;;;;;;34.40;30.90;;;8.40;99.90;;;;;;5051067;28;20475;-74
2021/11/06 12:02:27;;;;;;;34.80;30.20;;;8.50;99.90;;;;;;5051049;28;20444;-75
2021/11/06 12:05:29;;;;;;;36.50;32.50;;;8.40;99.90;;;;;;5050363;28;20514;-74
2021/11/06 12:08:28;;;;;;;36.67;32.47;;;8.60;99.90;;;;;;5051048;28;20454;-75
2021/11/06 12:10:59;;;;;;;37.70;33.57;;;8.90;99.90;;;;;;5050963;28;20471;-75
2021/11/06 12:13:39;;;;;;;36.30;31.57;;;8.80;99.90;;;;;;5050895;28;20872;-74
2021/11/06 12:16:08;;;;;;;36.50;32.87;;;8.70;99.90;;;;;;5051268;28;20448;-75
2021/11/06 12:18:54;;;;;;;36.30;32.77;;;8.60;99.90;;;;;;5050985;28;20456;-75
2021/11/06 12:21:25;;;;;;;37.40;33.60;;;8.60;99.90;;;;;;5051062;28;20459;-74
2021/11/06 12:23:54;;;;;;;38.00;34.00;;;8.60;99.90;;;;;;5051039;28;20440;-74
2021/11/06 12:26:23;;;;;;;35.80;31.93;;;8.40;99.90;;;;;;5050787;28;20483;-75
2021/11/06 12:28:53;;;;;;;38.87;34.13;;;8.30;99.90;;;;;;5050991;28;20452;-75
2021/11/06 12:31:27;;;;;;;37.80;33.60;;;8.30;99.90;;;;;;5051056;28;20590;-75
2021/11/06 12:33:54;;;;;;;41.47;34.37;;;8.20;99.90;;;;;;5050521;28;20864;-76
2021/11/06 12:36:22;;;;;;;36.50;32.37;;;8.20;99.90;;;;;;5050659;28;20452;-75
2021/11/06 12:38:49;;;;;;;39.20;34.90;;;8.30;99.90;;;;;;5050782;28;20747;-76
2021/11/06 12:41:27;;;;;;;39.03;34.83;;;8.20;99.90;;;;;;5050421;28;20963;-75